Time;durP1;ratioP1;P1;durP2;ratioP2;P2;SDS_P1;SDS_P2;PMS_P1;PMS_P2;Temp;Humidity;BMP_temperature;BMP_pressure;BME280_temperature;BME280_humidity;BME280_pressure;Samples;Min_cycle;Max_cycle;Signal;HPM_P1;HPM_P2
2023/05/07 00:00:31;;;;;;;9.57;4.22;;;;;;;0.00;0.00;74300.13;10589025;28;20132;-71
2023/05/07 00:05:32;;;;;;;7.35;3.83;;;;;;;0.00;0.00;74304.69;10597869;28;20047;-69
2023/05/07 00:10:34;;;;;;;9.38;4.93;;;;;;;0.00;0.00;74309.28;10588163;27;20047;-69
2023/05/07 00:15:35;;;;;;;10.48;4.63;;;;;;;0.00;0.00;74310.78;10597374;28;20039;-70
2023/05/07 00:20:37;;;;;;;14.05;5.35;;;;;;;0.00;0.00;74312.31;10587806;27;20047;-69
2023/05/07 00:25:38;;;;;;;11.93;5.13;;;;;;;0.00;0.00;74319.94;10605285;28;20070;-69
2023/05/07 00:30:40;;;;;;;9.90;4.88;;;;;;;0.00;0.00;74306.22;10588521;28;20047;-69
2023/05/07 00:35:43;;;;;;;10.50;5.10;;;;;;;0.00;0.00;74316.91;10578620;28;20661;-69
2023/05/07 00:40:45;;;;;;;12.98;5.70;;;;;;;0.00;0.00;74330.63;10579064;27;20119;-69
2023/05/07 00:45:47;;;;;;;10.50;4.95;;;;;;;0.00;0.00;74338.25;10589352;27;20061;-69
2023/05/07 00:50:48;;;;;;;13.20;5.68;;;;;;;0.00;0.00;74338.25;10595008;27;20444;-69
2023/05/07 00:55:50;;;;;;;15.02;5.75;;;;;;;0.00;0.00;74338.25;10602320;27;20143;-69
2023/05/07 01:00:52;;;;;;;10.65;4.57;;;;;;;0.00;0.00;74329.09;10561557;27;20059;-69
2023/05/07 01:05:55;;;;;;;8.05;4.60;;;;;;;0.00;0.00;74347.41;10578107;27;20043;-69
2023/05/07 01:10:58;;;;;;;8.98;4.47;;;;;;;0.00;0.00;74344.38;10604345;27;20046;-69
2023/05/07 01:16:00;;;;;;;10.23;4.22;;;;;;;0.00;0.00;74368.78;10588983;27;20043;-68
2023/05/07 01:21:10;;;;;;;9.18;3.75;;;;;;;0.00;0.00;74374.88;10574336;27;20506;-69
2023/05/07 01:26:12;;;;;;;10.52;4.35;;;;;;;0.00;0.00;74370.31;10557281;27;20039;-69
2023/05/07 01:31:16;;;;;;;9.00;4.15;;;;;;;0.00;0.00;74365.72;10576505;27;20051;-69
2023/05/07 01:36:20;;;;;;;9.93;4.35;;;;;;;0.00;0.00;74362.69;10611760;27;20067;-69
2023/05/07 01:41:22;;;;;;;8.88;4.38;;;;;;;0.00;0.00;74356.56;10603634;27;20031;-70
2023/05/07 01:46:26;;;;;;;11.27;4.57;;;;;;;0.00;0.00;74356.56;10578022;27;20039;-70
2023/05/07 01:51:27;;;;;;;10.10;4.97;;;;;;;0.00;0.00;74368.78;10565606;27;20107;-69
2023/05/07 01:56:30;;;;;;;7.45;3.95;;;;;;;0.00;0.00;74388.63;10575071;27;20057;-69
2023/05/07 02:01:32;;;;;;;8.10;4.03;;;;;;;0.00;0.00;74394.72;10592113;27;20407;-68
2023/05/07 02:06:33;;;;;;;9.98;4.10;;;;;;;0.00;0.00;74405.41;10582607;27;20171;-69
2023/05/07 02:11:38;;;;;;;5.97;3.38;;;;;;;0.00;0.00;74411.50;10584046;27;20485;-69
2023/05/07 02:16:40;;;;;;;9.27;3.53;;;;;;;0.00;0.00;74414.56;10601305;27;20534;-69
2023/05/07 02:21:44;;;;;;;9.52;4.32;;;;;;;0.00;0.00;74435.91;10556880;27;20491;-69
2023/05/07 02:26:46;;;;;;;7.53;3.00;;;;;;;0.00;0.00;74446.59;10592120;27;20043;-69
2023/05/07 02:31:52;;;;;;;8.90;3.83;;;;;;;0.00;0.00;74448.13;10573386;27;20069;-70
2023/05/07 02:36:55;;;;;;;8.52;4.03;;;;;;;0.00;0.00;74455.75;10609344;27;20084;-69
2023/05/07 02:41:59;;;;;;;10.70;3.15;;;;;;;0.00;0.00;74467.97;10565347;27;20057;-69
2023/05/07 02:47:01;;;;;;;7.57;3.35;;;;;;;0.00;0.00;74472.53;10563991;27;20175;-69
2023/05/07 02:52:03;;;;;;;7.55;3.53;;;;;;;0.00;0.00;74475.59;10580962;27;20047;-69
2023/05/07 02:57:05;;;;;;;6.82;3.33;;;;;;;0.00;0.00;74481.69;10607799;27;20092;-68
2023/05/07 03:02:06;;;;;;;9.75;4.05;;;;;;;0.00;0.00;74478.66;10590821;27;20511;-69
2023/05/07 03:07:08;;;;;;;7.18;3.67;;;;;;;0.00;0.00;74477.13;10576349;27;20035;-69
2023/05/07 03:12:10;;;;;;;10.80;4.18;;;;;;;0.00;0.00;74477.13;10590894;27;20050;-69
2023/05/07 03:17:11;;;;;;;7.63;3.95;;;;;;;0.00;0.00;74475.59;10571752;27;20507;-69
2023/05/07 03:22:13;;;;;;;7.20;3.60;;;;;;;0.00;0.00;74467.97;10587243;27;20773;-69
2023/05/07 03:27:15;;;;;;;6.32;3.35;;;;;;;0.00;0.00;74464.91;10580358;27;20125;-69
2023/05/07 03:32:17;;;;;;;9.05;4.28;;;;;;;0.00;0.00;74469.50;10560977;27;20031;-69
2023/05/07 03:37:19;;;;;;;7.75;3.22;;;;;;;0.00;0.00;74467.97;10581361;27;20055;-69
2023/05/07 03:42:21;;;;;;;4.85;3.25;;;;;;;0.00;0.00;74472.53;10546203;27;20492;-69
2023/05/07 03:47:25;;;;;;;5.50;2.65;;;;;;;0.00;0.00;74471.00;10568717;27;20042;-69
2023/05/07 03:52:27;;;;;;;8.85;3.45;;;;;;;0.00;0.00;74483.22;10591130;27;20051;-69
2023/05/07 03:57:31;;;;;;;7.57;3.60;;;;;;;0.00;0.00;74477.13;10586277;27;20447;-68
2023/05/07 04:02:33;;;;;;;7.85;3.20;;;;;;;0.00;0.00;74475.59;10579152;28;20049;-69
2023/05/07 04:07:37;;;;;;;6.28;3.08;;;;;;;0.00;0.00;74477.13;10561754;28;20047;-69
2023/05/07 04:12:38;;;;;;;7.65;3.35;;;;;;;0.00;0.00;74472.53;10561699;28;20035;-69
2023/05/07 04:17:42;;;;;;;8.00;3.10;;;;;;;0.00;0.00;74484.75;10583609;27;20031;-69
2023/05/07 04:22:45;;;;;;;8.05;3.67;;;;;;;0.00;0.00;74487.81;10579349;27;20075;-69
2023/05/07 04:27:46;;;;;;;7.13;2.72;;;;;;;0.00;0.00;74481.69;10588810;27;20067;-69
2023/05/07 04:32:50;;;;;;;7.35;3.10;;;;;;;0.00;0.00;74478.66;10587443;27;20125;-70
2023/05/07 04:37:52;;;;;;;9.57;3.63;;;;;;;0.00;0.00;74477.13;10560793;27;20541;-70
2023/05/07 04:42:53;;;;;;;7.90;3.42;;;;;;;0.00;0.00;74467.97;10612271;27;20035;-69
2023/05/07 04:47:56;;;;;;;8.63;3.70;;;;;;;0.00;0.00;74475.59;10583975;27;20445;-69
2023/05/07 04:52:57;;;;;;;7.15;3.05;;;;;;;0.00;0.00;74478.66;10585506;27;20153;-70
2023/05/07 04:58:01;;;;;;;9.48;5.07;;;;;;;0.00;0.00;74483.22;10585300;27;20146;-69
2023/05/07 05:03:06;;;;;;;8.63;3.13;;;;;;;0.00;0.00;74474.06;10586549;27;20567;-69
2023/05/07 05:08:08;;;;;;;7.78;3.63;;;;;;;0.00;0.00;74478.66;10568571;27;20118;-69
2023/05/07 05:13:13;;;;;;;7.70;3.67;;;;;;;0.00;0.00;74481.69;10589834;27;20096;-69
2023/05/07 05:18:16;;;;;;;6.78;3.38;;;;;;;0.00;0.00;74481.69;10579111;27;20063;-70
2023/05/07 05:23:17;;;;;;;8.00;3.92;;;;;;;0.00;0.00;74478.66;10563516;27;20092;-70
2023/05/07 05:28:19;;;;;;;12.18;3.90;;;;;;;0.00;0.00;74475.59;10590562;27;20046;-70
2023/05/07 05:33:20;;;;;;;9.57;4.43;;;;;;;0.00;0.00;74478.66;10596844;27;20039;-70
2023/05/07 05:39:12;;;;;;;7.00;3.38;;;;;;;0.00;0.00;74474.06;10585675;27;20158;-70
2023/05/07 05:45:29;;;;;;;9.02;3.53;;;;;;;0.00;0.00;74481.69;10551493;27;20069;-69
2023/05/07 05:51:44;;;;;;;8.02;3.67;;;;;;;0.00;0.00;74493.91;10577654;27;20576;-70
2023/05/07 05:57:10;;;;;;;6.95;2.80;;;;;;;0.00;0.00;74486.28;10571158;27;20040;-70
2023/05/07 06:02:12;;;;;;;6.57;2.72;;;;;;;0.00;0.00;74481.69;10569370;27;20057;-69
2023/05/07 06:07:15;;;;;;;8.20;3.20;;;;;;;0.00;0.00;74471.00;10583865;27;20070;-70
2023/05/07 06:12:16;;;;;;;5.95;2.75;;;;;;;0.00;0.00;74467.97;10584858;27;20166;-70
2023/05/07 06:17:18;;;;;;;8.65;3.45;;;;;;;0.00;0.00;74469.50;10580110;27;20723;-69
2023/05/07 06:22:24;;;;;;;6.57;2.55;;;;;;;0.00;0.00;74466.44;10579085;27;20042;-69
2023/05/07 06:27:26;;;;;;;7.47;3.30;;;;;;;0.00;0.00;74463.38;10582239;27;20133;-70
2023/05/07 06:32:28;;;;;;;5.82;3.08;;;;;;;0.00;0.00;74469.50;10584159;27;20039;-70
2023/05/07 06:37:29;;;;;;;9.68;3.60;;;;;;;0.00;0.00;74460.34;10580064;27;20100;-71
2023/05/07 06:42:37;;;;;;;6.65;3.25;;;;;;;0.00;0.00;74455.75;10583210;27;20043;-70
2023/05/07 06:48:02;;;;;;;6.97;2.92;;;;;;;0.00;0.00;74438.97;10587562;27;20043;-70
2023/05/07 06:53:08;;;;;;;5.32;2.47;;;;;;;0.00;0.00;74442.03;10585702;27;20043;-70
2023/05/07 06:58:09;;;;;;;6.65;3.28;;;;;;;0.00;0.00;74445.06;10573287;27;20075;-70
2023/05/07 07:03:12;;;;;;;6.20;3.17;;;;;;;0.00;0.00;74454.22;10563523;27;20036;-70
2023/05/07 07:08:16;;;;;;;7.35;3.55;;;;;;;0.00;0.00;74457.28;10573113;27;20051;-70
2023/05/07 07:13:19;;;;;;;7.20;2.50;;;;;;;0.00;0.00;74457.28;10568834;27;20043;-70
2023/05/07 07:18:21;;;;;;;8.05;3.58;;;;;;;0.00;0.00;74463.38;10560530;27;20058;-70
2023/05/07 07:23:24;;;;;;;5.90;2.63;;;;;;;0.00;0.00;74454.22;10550274;27;20049;-71
2023/05/07 07:28:26;;;;;;;5.53;2.58;;;;;;;0.00;0.00;74475.59;10556538;27;20062;-70
2023/05/07 07:33:28;;;;;;;4.70;2.72;;;;;;;0.00;0.00;74451.19;10558666;27;20122;-70
2023/05/07 07:38:31;;;;;;;7.40;3.40;;;;;;;0.00;0.00;74448.13;10559908;27;20089;-70
2023/05/07 07:43:32;;;;;;;6.43;2.58;;;;;;;0.00;0.00;74437.44;10578441;27;20117;-70
2023/05/07 07:48:34;;;;;;;5.57;2.78;;;;;;;0.00;0.00;74435.91;10565575;27;20566;-71
2023/05/07 07:53:36;;;;;;;8.63;3.30;;;;;;;0.00;0.00;74426.75;10596913;27;20075;-70
2023/05/07 07:58:39;;;;;;;7.30;3.13;;;;;;;0.00;0.00;74425.25;10582333;27;20146;-69
2023/05/07 08:03:40;;;;;;;5.68;2.55;;;;;;;0.00;0.00;74435.91;10586221;28;20085;-70
2023/05/07 08:08:42;;;;;;;5.35;2.70;;;;;;;0.00;0.00;74428.28;10596294;28;20418;-70
2023/05/07 08:13:45;;;;;;;5.85;2.60;;;;;;;0.00;0.00;74429.81;10570166;28;20039;-69
2023/05/07 08:18:47;;;;;;;6.78;2.90;;;;;;;0.00;0.00;74432.88;10572251;28;20093;-70
2023/05/07 08:23:49;;;;;;;6.63;3.17;;;;;;;0.00;0.00;74429.81;10556914;28;20039;-71
2023/05/07 08:28:51;;;;;;;9.43;3.03;;;;;;;0.00;0.00;74405.41;10596953;28;20035;-70
2023/05/07 08:33:52;;;;;;;8.02;3.95;;;;;;;0.00;0.00;74390.16;10586329;28;20036;-70
2023/05/07 08:38:54;;;;;;;6.93;3.15;;;;;;;0.00;0.00;74394.72;10567529;28;20173;-70
2023/05/07 08:43:58;;;;;;;11.90;3.10;;;;;;;0.00;0.00;74394.72;10580884;28;20035;-70
2023/05/07 08:49:00;;;;;;;6.30;3.08;;;;;;;0.00;0.00;74387.09;10571180;28;20426;-71
2023/05/07 08:54:02;;;;;;;5.60;3.25;;;;;;;0.00;0.00;74365.72;10575799;28;20051;-69
2023/05/07 08:59:07;;;;;;;6.72;3.25;;;;;;;0.00;0.00;74347.41;10584889;28;20134;-71
2023/05/07 09:04:09;;;;;;;8.55;3.75;;;;;;;0.00;0.00;74329.09;10576173;27;20039;-69
2023/05/07 09:09:17;;;;;;;5.18;2.65;;;;;;;0.00;0.00;74310.78;10570634;27;20054;-70
2023/05/07 09:14:21;;;;;;;8.77;3.70;;;;;;;0.00;0.00;74307.75;10582943;27;20067;-69
2023/05/07 09:19:24;;;;;;;8.10;3.67;;;;;;;0.00;0.00;74286.38;10602488;27;20067;-70
2023/05/07 09:24:34;;;;;;;6.38;3.08;;;;;;;0.00;0.00;74274.19;10604402;27;20444;-71
2023/05/07 09:29:38;;;;;;;6.95;3.05;;;;;;;0.00;0.00;74252.81;10590591;27;20035;-70
2023/05/07 09:34:41;;;;;;;6.90;3.45;;;;;;;0.00;0.00;74232.97;10576472;27;20636;-70
2023/05/07 09:39:46;;;;;;;6.00;3.03;;;;;;;0.00;0.00;74223.81;10574917;27;20305;-70
2023/05/07 09:44:50;;;;;;;9.18;3.15;;;;;;;0.00;0.00;74191.78;10563467;27;20050;-70
2023/05/07 09:49:57;;;;;;;6.07;3.33;;;;;;;0.00;0.00;74175.00;10583430;27;20515;-70
2023/05/07 09:55:00;;;;;;;5.20;2.75;;;;;;;0.00;0.00;74164.31;10592686;27;20047;-71
2023/05/07 10:00:05;;;;;;;7.00;3.83;;;;;;;0.00;0.00;74203.97;10567611;27;20051;-72
2023/05/07 10:05:25;;;;;;;5.97;2.70;;;;;;;0.00;0.00;74181.09;10595194;27;20122;-71
2023/05/07 10:10:32;;;;;;;6.72;3.15;;;;;;;0.00;0.00;74158.22;10575984;27;20142;-71
2023/05/07 10:15:34;;;;;;;5.70;2.80;;;;;;;0.00;0.00;74146.00;10565885;27;20039;-69
2023/05/07 10:20:39;;;;;;;4.82;2.50;;;;;;;0.00;0.00;74139.91;10583098;27;20513;-71
2023/05/07 10:25:43;;;;;;;6.72;2.97;;;;;;;0.00;0.00;74124.63;10581986;27;20066;-71
2023/05/07 10:31:23;;;;;;;6.18;2.92;;;;;;;0.00;0.00;74123.13;10583717;27;20039;-70
2023/05/07 10:36:26;;;;;;;8.93;4.38;;;;;;;0.00;0.00;74069.72;10574750;27;24549;-70
2023/05/07 10:41:28;;;;;;;7.53;3.42;;;;;;;0.00;0.00;74034.63;10588123;27;20043;-70
2023/05/07 10:46:32;;;;;;;5.63;2.90;;;;;;;0.00;0.00;74014.78;10560640;27;20048;-71
2023/05/07 10:51:41;;;;;;;7.05;3.40;;;;;;;0.00;0.00;74017.81;10570818;27;20616;-70
2023/05/07 10:56:55;;;;;;;6.13;3.22;;;;;;;0.00;0.00;73985.78;10570819;27;20043;-70
2023/05/07 11:02:03;;;;;;;6.53;3.42;;;;;;;0.00;0.00;73894.22;10557965;27;20092;-70
2023/05/07 11:07:28;;;;;;;9.13;3.60;;;;;;;0.00;0.00;73807.25;10572851;27;20040;-71
2023/05/07 11:12:38;;;;;;;7.13;3.35;;;;;;;0.00;0.00;73871.34;10580773;27;20383;-71
2023/05/07 11:17:59;;;;;;;9.30;4.03;;;;;;;0.00;0.00;73857.59;10588079;27;20038;-71
2023/05/07 11:23:06;;;;;;;11.57;3.20;;;;;;;0.00;0.00;73897.28;10569257;27;20525;-71
2023/05/07 11:28:13;;;;;;;6.35;3.10;;;;;;;0.00;0.00;73950.69;10568482;27;20180;-71
2023/05/07 11:33:22;;;;;;;7.53;3.47;;;;;;;0.00;0.00;73946.09;10576808;27;20036;-71
2023/05/07 11:38:27;;;;;;;8.05;3.58;;;;;;;0.00;0.00;73941.53;10561425;27;20415;-71
2023/05/07 11:43:29;;;;;;;8.63;3.67;;;;;;;0.00;0.00;73926.28;10578921;27;20672;-71
2023/05/07 11:48:31;;;;;;;6.43;3.33;;;;;;;0.00;0.00;73912.53;10582919;27;20051;-71
2023/05/07 11:53:38;;;;;;;7.57;3.53;;;;;;;0.00;0.00;73903.38;10594219;27;20050;-71
2023/05/07 11:58:41;;;;;;;6.97;3.65;;;;;;;0.00;0.00;73901.84;10598835;27;20043;-71
2023/05/07 12:03:45;;;;;;;7.28;3.72;;;;;;;0.00;0.00;73880.50;10583779;27;20059;-71
2023/05/07 12:08:47;;;;;;;7.97;3.80;;;;;;;0.00;0.00;73891.19;10583260;28;20047;-71
2023/05/07 12:13:50;;;;;;;7.32;3.45;;;;;;;0.00;0.00;73911.00;10569775;28;20399;-72
2023/05/07 12:18:54;;;;;;;7.40;3.63;;;;;;;0.00;0.00;73924.75;10595048;28;20122;-71
2023/05/07 12:23:56;;;;;;;7.80;3.08;;;;;;;0.00;0.00;73917.13;10578377;28;20039;-71
2023/05/07 12:28:58;;;;;;;8.55;3.72;;;;;;;0.00;0.00;73932.38;10598807;28;20510;-69
2023/05/07 12:33:59;;;;;;;8.00;4.00;;;;;;;0.00;0.00;73970.53;10576494;28;20050;-70
2023/05/07 12:39:01;;;;;;;8.82;3.47;;;;;;;0.00;0.00;73998.00;10602147;27;20039;-70
2023/05/07 12:44:04;;;;;;;6.15;3.53;;;;;;;0.00;0.00;73984.25;10596126;27;20036;-71
2023/05/07 12:49:06;;;;;;;5.43;2.97;;;;;;;0.00;0.00;73950.69;10596162;27;20035;-70
2023/05/07 12:54:07;;;;;;;6.65;3.35;;;;;;;0.00;0.00;73953.75;10613210;27;20043;-70
2023/05/07 12:59:09;;;;;;;8.52;3.42;;;;;;;0.00;0.00;73901.84;10603779;27;20051;-70
2023/05/07 13:04:11;;;;;;;6.30;2.88;;;;;;;0.00;0.00;73868.28;10585818;27;20044;-70
2023/05/07 13:09:12;;;;;;;8.85;3.70;;;;;;;0.00;0.00;73866.75;10601895;27;20047;-70
2023/05/07 13:14:14;;;;;;;6.95;3.50;;;;;;;0.00;0.00;73866.75;10611858;27;20902;-69
2023/05/07 13:19:17;;;;;;;6.03;3.30;;;;;;;0.00;0.00;73857.59;10586551;27;20050;-71
2023/05/07 13:24:18;;;;;;;7.72;3.30;;;;;;;0.00;0.00;73761.47;10595083;27;20052;-71
2023/05/07 13:29:25;;;;;;;5.82;3.08;;;;;;;0.00;0.00;73708.06;10586265;27;20076;-71
2023/05/07 13:34:28;;;;;;;7.22;3.30;;;;;;;0.00;0.00;73688.22;10576916;27;20046;-70
2023/05/07 13:39:29;;;;;;;6.10;2.90;;;;;;;0.00;0.00;73717.22;10591310;27;20051;-70
2023/05/07 13:44:31;;;;;;;7.45;2.40;;;;;;;0.00;0.00;73758.44;10575162;27;20043;-72
2023/05/07 13:49:32;;;;;;;5.55;2.95;;;;;;;0.00;0.00;73795.03;10561581;27;20039;-70
2023/05/07 13:54:34;;;;;;;6.95;2.83;;;;;;;0.00;0.00;73735.53;10587534;27;20066;-71
2023/05/07 13:59:35;;;;;;;5.68;3.00;;;;;;;0.00;0.00;73738.59;10601282;27;20054;-70
2023/05/07 14:04:37;;;;;;;7.63;2.95;;;;;;;0.00;0.00;73685.19;10596588;27;20054;-71
2023/05/07 14:09:39;;;;;;;6.05;2.55;;;;;;;0.00;0.00;73749.28;10586026;27;20063;-73
2023/05/07 14:14:40;;;;;;;5.82;3.17;;;;;;;0.00;0.00;73694.34;10594516;27;20092;-73
2023/05/07 14:19:42;;;;;;;5.57;2.83;;;;;;;0.00;0.00;73700.44;10598243;27;20050;-74
2023/05/07 14:24:44;;;;;;;5.35;3.00;;;;;;;0.00;0.00;73727.91;10607605;27;20038;-73
2023/05/07 14:29:51;;;;;;;5.75;2.67;;;;;;;0.00;0.00;73721.81;10580635;27;20081;-74
2023/05/07 14:34:52;;;;;;;6.07;2.80;;;;;;;0.00;0.00;73717.22;10578408;27;20037;-73
2023/05/07 14:39:54;;;;;;;5.40;2.40;;;;;;;0.00;0.00;73714.19;10572335;27;20039;-75
2023/05/07 14:44:55;;;;;;;5.57;2.70;;;;;;;0.00;0.00;73691.28;10589010;27;20463;-75
2023/05/07 14:49:58;;;;;;;5.47;2.30;;;;;;;0.00;0.00;73715.69;10590245;27;20415;-74
2023/05/07 14:55:00;;;;;;;6.38;2.85;;;;;;;0.00;0.00;73734.00;10575013;27;20048;-75
2023/05/07 15:00:04;;;;;;;4.97;2.50;;;;;;;0.00;0.00;73706.53;10591067;27;20036;-78
2023/05/07 15:05:06;;;;;;;5.90;2.25;;;;;;;0.00;0.00;73700.44;10554097;27;20043;-76
2023/05/07 15:10:08;;;;;;;4.70;1.90;;;;;;;0.00;0.00;73697.38;10587554;27;20092;-75
2023/05/07 15:15:10;;;;;;;6.47;2.80;;;;;;;0.00;0.00;73734.00;10583995;27;20049;-73
2023/05/07 15:20:12;;;;;;;5.18;2.60;;;;;;;0.00;0.00;73692.81;10586230;27;20426;-76
2023/05/07 15:25:13;;;;;;;5.50;2.60;;;;;;;0.00;0.00;73706.53;10581333;27;20050;-76
2023/05/07 15:30:15;;;;;;;6.53;3.22;;;;;;;0.00;0.00;73735.53;10554515;27;20848;-76
2023/05/07 15:35:21;;;;;;;5.53;2.70;;;;;;;0.00;0.00;73727.91;10585015;27;20035;-76
2023/05/07 15:40:22;;;;;;;;;;;;;;;0.00;0.00;73727.91;10586194;27;20035;-77
2023/05/07 15:45:24;;;;;;;;;;;;;;;0.00;0.00;73744.69;10586238;27;20017;-77
2023/05/07 15:50:26;;;;;;;6.27;2.77;;;;;;;0.00;0.00;73756.91;10571870;27;20527;-77
2023/05/07 15:55:28;;;;;;;6.22;3.33;;;;;;;0.00;0.00;73750.78;10585269;27;20039;-75
2023/05/07 16:00:29;;;;;;;5.65;2.88;;;;;;;0.00;0.00;73767.59;10584063;27;20070;-76
2023/05/07 16:05:31;;;;;;;6.05;3.00;;;;;;;0.00;0.00;73767.59;10587847;27;20245;-75
2023/05/07 16:10:32;;;;;;;4.80;2.63;;;;;;;0.00;0.00;73700.44;10574474;27;20043;-76
2023/05/07 16:15:34;;;;;;;5.88;3.20;;;;;;;0.00;0.00;73657.72;10596387;27;20050;-76
2023/05/07 16:20:36;;;;;;;5.93;2.53;;;;;;;0.00;0.00;73738.59;10581473;27;20040;-76
2023/05/07 16:25:38;;;;;;;5.95;2.92;;;;;;;0.00;0.00;73759.94;10581574;27;20031;-76
2023/05/07 16:30:39;;;;;;;5.35;2.50;;;;;;;0.00;0.00;73810.31;10565996;27;20882;-76
2023/05/07 16:35:42;;;;;;;;;;;;;;;0.00;0.00;73842.34;10594604;27;20128;-75
2023/05/07 16:40:44;;;;;;;6.82;2.92;;;;;;;0.00;0.00;73866.75;10566259;27;19930;-75
2023/05/07 16:45:45;;;;;;;;;;;;;;;0.00;0.00;73868.28;10586469;27;20039;-76
2023/05/07 16:50:47;;;;;;;6.38;3.17;;;;;;;0.00;0.00;73859.13;10575500;27;19927;-75
2023/05/07 16:55:49;;;;;;;6.10;3.05;;;;;;;0.00;0.00;73891.19;10577940;27;20593;-76
2023/05/07 17:00:50;;;;;;;5.60;3.15;;;;;;;0.00;0.00;73903.38;10588254;27;20500;-75
2023/05/07 17:05:52;;;;;;;11.35;2.97;;;;;;;0.00;0.00;73892.69;10576689;27;20062;-75
2023/05/07 17:10:53;;;;;;;5.22;2.80;;;;;;;0.00;0.00;73831.66;10590170;27;20048;-75
2023/05/07 17:15:55;;;;;;;6.40;2.40;;;;;;;0.00;0.00;73822.50;10570537;27;20050;-75
2023/05/07 17:20:57;;;;;;;5.75;2.67;;;;;;;0.00;0.00;73848.44;10589195;27;20039;-75
2023/05/07 17:25:58;;;;;;;5.30;2.60;;;;;;;0.00;0.00;73904.91;10587015;27;20043;-75
2023/05/07 17:31:00;;;;;;;4.97;2.55;;;;;;;0.00;0.00;73927.81;10565402;27;20071;-75
2023/05/07 17:36:02;;;;;;;6.47;2.80;;;;;;;0.00;0.00;73941.53;10583951;27;20047;-75
2023/05/07 17:41:03;;;;;;;4.68;2.00;;;;;;;0.00;0.00;73944.59;10578788;27;20055;-75
2023/05/07 17:46:07;;;;;;;6.90;2.72;;;;;;;0.00;0.00;73956.78;10579416;27;20062;-75
2023/05/07 17:51:09;;;;;;;5.63;2.35;;;;;;;0.00;0.00;73965.94;10590040;27;20050;-74
2023/05/07 17:56:10;;;;;;;4.78;2.40;;;;;;;0.00;0.00;73988.84;10558909;27;20039;-75
2023/05/07 18:01:12;;;;;;;5.53;2.50;;;;;;;0.00;0.00;74002.56;10575795;27;20047;-74
2023/05/07 18:06:17;;;;;;;5.28;2.53;;;;;;;0.00;0.00;74020.88;10584109;27;20566;-74
2023/05/07 18:11:20;;;;;;;3.78;2.15;;;;;;;0.00;0.00;74033.09;10580723;27;20534;-75
2023/05/07 18:16:22;;;;;;;6.18;2.67;;;;;;;0.00;0.00;74043.75;10559190;27;20040;-74
2023/05/07 18:21:23;;;;;;;3.80;2.00;;;;;;;0.00;0.00;74057.50;10582118;27;20096;-74
2023/05/07 18:26:25;;;;;;;5.18;2.25;;;;;;;0.00;0.00;74072.75;10573245;27;20595;-74
2023/05/07 18:31:26;;;;;;;4.95;2.28;;;;;;;0.00;0.00;74081.91;10578414;27;20040;-73
2023/05/07 18:36:28;;;;;;;5.07;2.13;;;;;;;0.00;0.00;74084.97;10596242;27;20139;-74
2023/05/07 18:41:30;;;;;;;3.88;2.00;;;;;;;0.00;0.00;74101.75;10570512;27;20055;-74
2023/05/07 18:46:31;;;;;;;4.50;2.22;;;;;;;0.00;0.00;74115.47;10558843;27;20052;-73
2023/05/07 18:51:33;;;;;;;5.30;2.42;;;;;;;0.00;0.00;74130.75;10591767;27;20043;-74
2023/05/07 18:56:35;;;;;;;7.88;2.55;;;;;;;0.00;0.00;74136.84;10567369;27;20051;-74
2023/05/07 19:01:36;;;;;;;5.22;2.50;;;;;;;0.00;0.00;74144.47;10569981;27;20040;-74
2023/05/07 19:06:38;;;;;;;4.97;2.28;;;;;;;0.00;0.00;74152.09;10587441;27;20043;-74
2023/05/07 19:11:39;;;;;;;4.13;1.90;;;;;;;0.00;0.00;74162.78;10589615;27;20055;-74
2023/05/07 19:16:41;;;;;;;3.42;1.50;;;;;;;0.00;0.00;74170.41;10604170;27;20454;-74
2023/05/07 19:21:42;;;;;;;6.43;2.47;;;;;;;0.00;0.00;74170.41;10578397;27;20051;-75
2023/05/07 19:26:44;;;;;;;5.57;2.40;;;;;;;0.00;0.00;74176.53;10594286;27;20050;-74
2023/05/07 19:31:45;;;;;;;4.68;2.30;;;;;;;0.00;0.00;74197.88;10584491;27;20039;-75
2023/05/07 19:36:47;;;;;;;4.80;2.40;;;;;;;0.00;0.00;74203.97;10572811;27;20571;-74
2023/05/07 19:41:48;;;;;;;4.88;2.10;;;;;;;0.00;0.00;74220.78;10599914;27;20042;-75
2023/05/07 19:46:51;;;;;;;8.60;1.67;;;;;;;0.00;0.00;74236.03;10595625;27;20042;-75
2023/05/07 19:51:53;;;;;;;5.25;2.10;;;;;;;0.00;0.00;74240.59;10581407;27;20034;-74
2023/05/07 19:56:55;;;;;;;4.30;2.20;;;;;;;0.00;0.00;74249.75;10589213;27;20047;-75
2023/05/07 20:01:57;;;;;;;5.20;2.20;;;;;;;0.00;0.00;74255.88;10579148;27;20043;-74
2023/05/07 20:06:58;;;;;;;4.05;1.95;;;;;;;0.00;0.00;74263.50;10581787;27;20061;-75
2023/05/07 20:12:00;;;;;;;4.35;2.05;;;;;;;0.00;0.00;74275.69;10564659;28;20055;-75
2023/05/07 20:17:02;;;;;;;4.45;2.17;;;;;;;0.00;0.00;74280.28;10580115;27;20062;-74
2023/05/07 20:22:03;;;;;;;5.30;2.20;;;;;;;0.00;0.00;74277.22;10592376;27;20043;-74
2023/05/07 20:27:05;;;;;;;2.88;1.60;;;;;;;0.00;0.00;74292.50;10546789;27;20043;-75
2023/05/07 20:32:06;;;;;;;4.10;2.05;;;;;;;0.00;0.00;74298.59;10571823;28;20035;-74
2023/05/07 20:37:12;;;;;;;3.95;1.90;;;;;;;0.00;0.00;74309.28;10558063;27;20051;-75
2023/05/07 20:42:14;;;;;;;4.70;1.80;;;;;;;0.00;0.00;74319.94;10572296;28;20145;-74
2023/05/07 20:47:16;;;;;;;4.43;2.22;;;;;;;0.00;0.00;74323.00;10562000;28;20525;-75
2023/05/07 20:52:18;;;;;;;2.78;1.33;;;;;;;0.00;0.00;74332.16;10580947;27;20042;-74
2023/05/07 20:57:19;;;;;;;5.40;2.38;;;;;;;0.00;0.00;74335.22;10595642;27;20525;-74
2023/05/07 21:02:21;;;;;;;3.80;2.03;;;;;;;0.00;0.00;74344.38;10578645;27;20036;-74
2023/05/07 21:07:22;;;;;;;3.17;1.98;;;;;;;0.00;0.00;74356.56;10604965;27;20410;-75
2023/05/07 21:12:24;;;;;;;3.85;1.92;;;;;;;0.00;0.00;74370.31;10578006;27;20498;-74
2023/05/07 21:17:27;;;;;;;4.85;2.08;;;;;;;0.00;0.00;74385.56;10583422;27;20039;-74
2023/05/07 21:22:29;;;;;;;4.00;1.92;;;;;;;0.00;0.00;74391.66;10589313;27;20104;-74
2023/05/07 21:27:31;;;;;;;4.40;2.22;;;;;;;0.00;0.00;74402.34;10543055;27;20036;-74
2023/05/07 21:32:33;;;;;;;4.47;1.83;;;;;;;0.00;0.00;74408.44;10603160;27;20043;-74
2023/05/07 21:37:34;;;;;;;3.33;1.90;;;;;;;0.00;0.00;74420.66;10586310;27;20047;-74
2023/05/07 21:42:36;;;;;;;4.55;2.15;;;;;;;0.00;0.00;74420.66;10584817;27;20036;-74
2023/05/07 21:47:37;;;;;;;4.10;2.00;;;;;;;0.00;0.00;74428.28;10577311;27;20084;-74
2023/05/07 21:52:39;;;;;;;3.95;2.00;;;;;;;0.00;0.00;74432.88;10585328;27;20031;-74
2023/05/07 21:57:41;;;;;;;7.95;2.05;;;;;;;0.00;0.00;74442.03;10576760;27;20039;-75
2023/05/07 22:02:54;;;;;;;3.28;1.70;;;;;;;0.00;0.00;74448.13;10587904;27;20035;-74
2023/05/07 22:07:56;;;;;;;2.55;1.40;;;;;;;0.00;0.00;74451.19;10584082;27;20361;-74
2023/05/07 22:12:58;;;;;;;6.28;2.10;;;;;;;0.00;0.00;74451.19;10595282;27;20040;-74
2023/05/07 22:17:59;;;;;;;4.40;2.20;;;;;;;0.00;0.00;74457.28;10600182;27;20407;-74
2023/05/07 22:23:01;;;;;;;4.00;1.83;;;;;;;0.00;0.00;74464.91;10567147;27;20582;-74
2023/05/07 22:28:02;;;;;;;3.78;1.88;;;;;;;0.00;0.00;74471.00;10580621;27;20415;-74
2023/05/07 22:33:05;;;;;;;4.40;2.20;;;;;;;0.00;0.00;74481.69;10593340;27;20494;-74
2023/05/07 22:38:06;;;;;;;3.80;1.75;;;;;;;0.00;0.00;74490.84;10575260;27;20052;-74
2023/05/07 22:43:08;;;;;;;3.40;1.80;;;;;;;0.00;0.00;74495.44;10579424;27;20035;-74
2023/05/07 22:48:09;;;;;;;4.68;2.08;;;;;;;0.00;0.00;74506.09;10574471;27;20042;-74
2023/05/07 22:53:11;;;;;;;4.85;2.30;;;;;;;0.00;0.00;74513.75;10588579;27;20633;-74
2023/05/07 22:58:13;;;;;;;4.95;2.50;;;;;;;0.00;0.00;59042.03;10595745;27;20043;-74
2023/05/07 23:03:14;;;;;;;4.32;2.22;;;;;;;0.01;0.00;59042.03;10575967;27;20035;-74
2023/05/07 23:08:16;;;;;;;5.35;2.35;;;;;;;0.01;0.00;59042.03;10560878;27;20043;-75
2023/05/07 23:13:17;;;;;;;4.43;2.25;;;;;;;0.01;0.00;59042.03;10565611;27;20066;-74
2023/05/07 23:18:19;;;;;;;4.22;2.00;;;;;;;0.01;0.00;59042.03;10582415;27;20039;-74
2023/05/07 23:23:21;;;;;;;3.95;1.73;;;;;;;0.01;0.00;59042.03;10572882;27;20046;-74
2023/05/07 23:28:22;;;;;;;5.95;2.22;;;;;;;0.01;0.00;59042.03;10559883;27;20138;-74
2023/05/07 23:33:24;;;;;;;3.92;1.75;;;;;;;0.01;0.00;59042.03;10586963;27;20058;-74
2023/05/07 23:38:26;;;;;;;5.10;2.03;;;;;;;0.01;0.00;59042.03;10558057;27;20039;-74
2023/05/07 23:43:27;;;;;;;4.70;1.85;;;;;;;0.01;0.00;59042.03;10596103;27;20046;-74
2023/05/07 23:48:30;;;;;;;3.75;1.80;;;;;;;0.01;0.00;59042.03;10581505;27;20038;-74
2023/05/07 23:53:31;;;;;;;3.50;1.80;;;;;;;0.01;0.00;59042.03;10571484;27;20047;-74
2023/05/07 23:58:33;;;;;;;3.15;2.00;;;;;;;0.01;0.00;59042.03;10590492;27;20039;-74
